CAL525 RCTP-ZSPD
Flight info
| Callsign | CAL525 |
|---|---|
| Flight time | N/A |
| Altitude | 31000 |
| Route | PIANO1A PIANO L3 VIOLA R596 SULEM/K0946S0945 R596 DST B221 SHZ W58 XSY |
| Aircraft | B77W/H-SDE1E2E3FGHIJ2J3J4J5M1RWXY/LB1D1 |
Departure
| Time | 2026-05-07 11:01 |
|---|---|
| Airport | Taiwan Taoyuan International Airport (RCTP) |
Arrival
| Time | N/A |
|---|---|
| Airport | Shanghai Pudong International Airport (ZSPD) |
| Time | Latitude | Longitude | Altitude | Speed | Heading |
|---|---|---|---|---|---|
| 2026-05-07 10:29 | 25.07855 | 121.22978 | 106 ft | 0 kts | 139° |
| 2026-05-07 10:48 | 25.07861 | 121.22972 | 106 ft | 4 kts | 139° |
| 2026-05-07 10:48 | 25.07881 | 121.22953 | 105 ft | 4 kts | 139° |
| 2026-05-07 10:49 | 25.07901 | 121.22933 | 105 ft | 4 kts | 139° |
| 2026-05-07 10:49 | 25.07918 | 121.22917 | 106 ft | 3 kts | 139° |
| 2026-05-07 10:49 | 25.07935 | 121.22909 | 107 ft | 4 kts | 216° |
| 2026-05-07 10:49 | 25.07952 | 121.22929 | 106 ft | 4 kts | 229° |
| 2026-05-07 10:50 | 25.07969 | 121.22950 | 106 ft | 2 kts | 229° |
| 2026-05-07 10:50 | 25.07969 | 121.22951 | 106 ft | 0 kts | 229° |
| 2026-05-07 10:51 | 25.07962 | 121.22941 | 108 ft | 7 kts | 229° |
| 2026-05-07 10:52 | 25.07917 | 121.22883 | 106 ft | 11 kts | 229° |
| 2026-05-07 10:52 | 25.07868 | 121.22820 | 108 ft | 11 kts | 229° |
| 2026-05-07 10:52 | 25.07816 | 121.22754 | 108 ft | 11 kts | 229° |
| 2026-05-07 10:52 | 25.07764 | 121.22688 | 106 ft | 11 kts | 229° |
| 2026-05-07 10:53 | 25.07712 | 121.22621 | 107 ft | 12 kts | 229° |
| 2026-05-07 10:53 | 25.07646 | 121.22537 | 108 ft | 15 kts | 229° |
| 2026-05-07 10:53 | 25.07575 | 121.22446 | 107 ft | 16 kts | 229° |
| 2026-05-07 10:53 | 25.07502 | 121.22353 | 107 ft | 16 kts | 229° |
| 2026-05-07 10:54 | 25.07432 | 121.22263 | 106 ft | 16 kts | 229° |
| 2026-05-07 10:54 | 25.07360 | 121.22171 | 107 ft | 16 kts | 229° |
| 2026-05-07 10:54 | 25.07289 | 121.22081 | 109 ft | 15 kts | 225° |
| 2026-05-07 10:54 | 25.07198 | 121.22093 | 109 ft | 15 kts | 141° |
| 2026-05-07 10:55 | 25.07119 | 121.22167 | 106 ft | 15 kts | 139° |
| 2026-05-07 10:55 | 25.07041 | 121.22241 | 109 ft | 15 kts | 139° |
| 2026-05-07 10:55 | 25.06963 | 121.22314 | 109 ft | 15 kts | 139° |
| 2026-05-07 10:55 | 25.06881 | 121.22392 | 107 ft | 18 kts | 139° |
| 2026-05-07 10:56 | 25.06785 | 121.22482 | 109 ft | 18 kts | 139° |
| 2026-05-07 10:56 | 25.06689 | 121.22572 | 107 ft | 18 kts | 139° |
| 2026-05-07 10:56 | 25.06595 | 121.22645 | 105 ft | 16 kts | 173° |
| 2026-05-07 10:56 | 25.06510 | 121.22574 | 107 ft | 16 kts | 229° |
| 2026-05-07 10:57 | 25.06437 | 121.22483 | 107 ft | 16 kts | 229° |
| 2026-05-07 10:57 | 25.06366 | 121.22392 | 106 ft | 16 kts | 229° |
| 2026-05-07 10:57 | 25.06321 | 121.22335 | 105 ft | 5 kts | 229° |
| 2026-05-07 10:57 | 25.06310 | 121.22322 | 105 ft | 1 kts | 229° |
| 2026-05-07 10:58 | 25.06306 | 121.22316 | 107 ft | 1 kts | 229° |
| 2026-05-07 10:58 | 25.06298 | 121.22306 | 108 ft | 2 kts | 229° |
| 2026-05-07 10:58 | 25.06288 | 121.22294 | 105 ft | 0 kts | 229° |
| 2026-05-07 10:58 | 25.06286 | 121.22291 | 105 ft | 1 kts | 229° |
| 2026-05-07 10:59 | 25.06280 | 121.22283 | 105 ft | 2 kts | 229° |
| 2026-05-07 10:59 | 25.06270 | 121.22270 | 105 ft | 3 kts | 229° |
| 2026-05-07 10:59 | 25.06218 | 121.22245 | 107 ft | 13 kts | 173° |
| 2026-05-07 10:59 | 25.06143 | 121.22308 | 104 ft | 15 kts | 137° |
| 2026-05-07 11:00 | 25.06109 | 121.22381 | 103 ft | 9 kts | 64° |
| 2026-05-07 11:00 | 25.06165 | 121.22458 | 100 ft | 29 kts | 49° |
| 2026-05-07 11:00 | 25.06496 | 121.22876 | 100 ft | 115 kts | 49° |
| 2026-05-07 11:00 | 25.07191 | 121.23744 | 167 ft | 176 kts | 48° |
| 2026-05-07 11:01 | 25.08003 | 121.24774 | 786 ft | 190 kts | 49° |
| 2026-05-07 11:01 | 25.08879 | 121.25915 | 1561 ft | 196 kts | 51° |
| 2026-05-07 11:01 | 25.09771 | 121.27099 | 2256 ft | 209 kts | 50° |
| 2026-05-07 11:01 | 25.10772 | 121.28421 | 2540 ft | 241 kts | 50° |
| 2026-05-07 11:02 | 25.11948 | 121.29846 | 2962 ft | 259 kts | 37° |
| 2026-05-07 11:02 | 25.13629 | 121.30587 | 3611 ft | 267 kts | 1° |
| 2026-05-07 11:02 | 25.15437 | 121.30177 | 4434 ft | 268 kts | 328° |
| 2026-05-07 11:02 | 25.16902 | 121.28931 | 5234 ft | 268 kts | 321° |
| 2026-05-07 11:03 | 25.18683 | 121.28191 | 5880 ft | 287 kts | 355° |
| 2026-05-07 11:03 | 25.20695 | 121.28353 | 6630 ft | 293 kts | 2° |
| 2026-05-07 11:03 | 25.22742 | 121.28515 | 7484 ft | 295 kts | 359° |
| 2026-05-07 11:03 | 25.24788 | 121.28573 | 8480 ft | 294 kts | 357° |
| 2026-05-07 11:04 | 25.26812 | 121.28567 | 9396 ft | 296 kts | 356° |
| 2026-05-07 11:04 | 25.28884 | 121.28521 | 10223 ft | 301 kts | 355° |
| 2026-05-07 11:04 | 25.31040 | 121.28449 | 10701 ft | 322 kts | 354° |
| 2026-05-07 11:04 | 25.33382 | 121.28360 | 10896 ft | 352 kts | 355° |
| 2026-05-07 11:05 | 25.35919 | 121.28279 | 11127 ft | 375 kts | 358° |
| 2026-05-07 11:05 | 25.38538 | 121.28839 | 11598 ft | 396 kts | 20° |
| 2026-05-07 11:05 | 25.40859 | 121.30557 | 12509 ft | 408 kts | 43° |
| 2026-05-07 11:05 | 25.42730 | 121.32913 | 13352 ft | 412 kts | 47° |
| 2026-05-07 11:06 | 25.44598 | 121.35354 | 14155 ft | 420 kts | 47° |
| 2026-05-07 11:06 | 25.46503 | 121.37841 | 14967 ft | 425 kts | 47° |
| 2026-05-07 11:06 | 25.48432 | 121.40347 | 15802 ft | 431 kts | 47° |
| 2026-05-07 11:06 | 25.50396 | 121.42887 | 16588 ft | 437 kts | 47° |
| 2026-05-07 11:07 | 25.52389 | 121.45454 | 17358 ft | 443 kts | 47° |
| 2026-05-07 11:07 | 25.54427 | 121.48069 | 18174 ft | 449 kts | 47° |
| 2026-05-07 11:07 | 25.56474 | 121.50693 | 18859 ft | 454 kts | 47° |
| 2026-05-07 11:07 | 25.58549 | 121.53351 | 19563 ft | 458 kts | 47° |
| 2026-05-07 11:08 | 25.60646 | 121.56039 | 20259 ft | 462 kts | 47° |
| 2026-05-07 11:08 | 25.62762 | 121.58752 | 20940 ft | 467 kts | 47° |
| 2026-05-07 11:08 | 25.64891 | 121.61484 | 21591 ft | 471 kts | 47° |
| 2026-05-07 11:08 | 25.67041 | 121.64244 | 22260 ft | 476 kts | 47° |
| 2026-05-07 11:09 | 25.69215 | 121.67038 | 22901 ft | 480 kts | 47° |
| 2026-05-07 11:09 | 25.71405 | 121.69854 | 23523 ft | 484 kts | 47° |
| 2026-05-07 11:09 | 25.73586 | 121.72661 | 24026 ft | 488 kts | 47° |
| 2026-05-07 11:09 | 25.75091 | 121.74599 | 24354 ft | 491 kts | 47° |
| 2026-05-07 11:10 | 25.78061 | 121.78423 | 25002 ft | 497 kts | 47° |
| 2026-05-07 11:10 | 25.80331 | 121.81328 | 25511 ft | 500 kts | 45° |
| 2026-05-07 11:10 | 25.82873 | 121.83960 | 25880 ft | 501 kts | 35° |
| 2026-05-07 11:10 | 25.85722 | 121.86201 | 26358 ft | 503 kts | 31° |
| 2026-05-07 11:11 | 25.88637 | 121.88373 | 26866 ft | 506 kts | 31° |
| 2026-05-07 11:11 | 25.90611 | 121.89865 | 27192 ft | 508 kts | 32° |
| 2026-05-07 11:11 | 25.94465 | 121.92883 | 27806 ft | 514 kts | 33° |
| 2026-05-07 11:11 | 25.97363 | 121.95228 | 28261 ft | 518 kts | 33° |
| 2026-05-07 11:12 | 25.99292 | 121.96802 | 28547 ft | 520 kts | 33° |
| 2026-05-07 11:12 | 26.02216 | 121.99184 | 28973 ft | 523 kts | 33° |
| 2026-05-07 11:12 | 26.06186 | 122.02360 | 29478 ft | 527 kts | 32° |
| 2026-05-07 11:12 | 26.08180 | 122.03920 | 29770 ft | 528 kts | 32° |
| 2026-05-07 11:13 | 26.11189 | 122.06257 | 30278 ft | 527 kts | 32° |
| 2026-05-07 11:13 | 26.14194 | 122.08587 | 30832 ft | 524 kts | 31° |
| 2026-05-07 11:13 | 26.20173 | 122.13240 | 30936 ft | 522 kts | 32° |
| 2026-05-07 11:14 | 26.26109 | 122.17888 | 30963 ft | 522 kts | 32° |
| 2026-05-07 11:14 | 26.32055 | 122.22556 | 30942 ft | 524 kts | 32° |
| 2026-05-07 11:15 | 26.38026 | 122.27251 | 30954 ft | 524 kts | 32° |
| 2026-05-07 11:15 | 26.43964 | 122.31925 | 30949 ft | 525 kts | 32° |
| 2026-05-07 11:16 | 26.49924 | 122.36623 | 30947 ft | 524 kts | 32° |
| 2026-05-07 11:16 | 26.55881 | 122.41323 | 30951 ft | 524 kts | 32° |
| 2026-05-07 11:17 | 26.61833 | 122.46027 | 30961 ft | 524 kts | 32° |
| 2026-05-07 11:17 | 26.67793 | 122.50740 | 30952 ft | 524 kts | 32° |
| 2026-05-07 11:18 | 26.73746 | 122.55457 | 30956 ft | 524 kts | 32° |
| 2026-05-07 11:18 | 26.79697 | 122.60177 | 30959 ft | 524 kts | 32° |
| 2026-05-07 11:19 | 26.85602 | 122.64868 | 30963 ft | 524 kts | 31° |
| 2026-05-07 11:19 | 26.91564 | 122.69610 | 30960 ft | 525 kts | 31° |
| 2026-05-07 11:20 | 26.97524 | 122.74358 | 30960 ft | 526 kts | 31° |
| 2026-05-07 11:20 | 27.03487 | 122.79115 | 30964 ft | 526 kts | 31° |
| 2026-05-07 11:21 | 27.09451 | 122.83882 | 30963 ft | 526 kts | 31° |
| 2026-05-07 11:21 | 27.15402 | 122.88679 | 30962 ft | 526 kts | 32° |
| 2026-05-07 11:22 | 27.18463 | 122.90853 | 30942 ft | 516 kts | 20° |
| 2026-05-07 11:22 | 27.21846 | 122.92034 | 30960 ft | 505 kts | 4° |
| 2026-05-07 11:22 | 27.25309 | 122.92225 | 30986 ft | 496 kts | 351° |
| 2026-05-07 11:22 | 27.28686 | 122.91611 | 30956 ft | 486 kts | 338° |
| 2026-05-07 11:23 | 27.34931 | 122.88845 | 30976 ft | 483 kts | 334° |
| 2026-05-07 11:23 | 27.37927 | 122.87254 | 30959 ft | 472 kts | 322° |
| 2026-05-07 11:23 | 27.40342 | 122.84900 | 30969 ft | 462 kts | 306° |
| 2026-05-07 11:24 | 27.42102 | 122.81913 | 30978 ft | 457 kts | 294° |
| 2026-05-07 11:24 | 27.43353 | 122.78581 | 30983 ft | 456 kts | 286° |
| 2026-05-07 11:24 | 27.44001 | 122.75153 | 30957 ft | 454 kts | 272° |
| 2026-05-07 11:24 | 27.44012 | 122.71606 | 30980 ft | 452 kts | 269° |
| 2026-05-07 11:25 | 27.43900 | 122.64494 | 30953 ft | 455 kts | 269° |
| 2026-05-07 11:25 | 27.43872 | 122.57358 | 30966 ft | 456 kts | 270° |
| 2026-05-07 11:26 | 27.43890 | 122.50205 | 30961 ft | 457 kts | 270° |
| 2026-05-07 11:26 | 27.43988 | 122.43057 | 30957 ft | 456 kts | 274° |
| 2026-05-07 11:27 | 27.44932 | 122.35999 | 30960 ft | 456 kts | 280° |
| 2026-05-07 11:27 | 27.46200 | 122.28996 | 30954 ft | 456 kts | 280° |
| 2026-05-07 11:28 | 27.47433 | 122.22033 | 30957 ft | 456 kts | 280° |
| 2026-05-07 11:28 | 27.48658 | 122.15020 | 30949 ft | 456 kts | 280° |
| 2026-05-07 11:29 | 27.49874 | 122.08007 | 30954 ft | 456 kts | 280° |
| 2026-05-07 11:29 | 27.51092 | 122.00976 | 30957 ft | 457 kts | 280° |
| 2026-05-07 11:30 | 27.52306 | 121.93932 | 30953 ft | 457 kts | 280° |
| 2026-05-07 11:30 | 27.53517 | 121.86888 | 30958 ft | 458 kts | 280° |
| 2026-05-07 11:31 | 27.54720 | 121.79879 | 30952 ft | 459 kts | 280° |
| 2026-05-07 11:31 | 27.55931 | 121.72815 | 30959 ft | 459 kts | 280° |
| 2026-05-07 11:32 | 27.57738 | 121.62189 | 30955 ft | 460 kts | 280° |
| 2026-05-07 11:33 | 27.58946 | 121.55114 | 30942 ft | 460 kts | 280° |
| 2026-05-07 11:33 | 27.60203 | 121.48027 | 30952 ft | 460 kts | 280° |
| 2026-05-07 11:34 | 27.61468 | 121.40939 | 30959 ft | 461 kts | 280° |
| 2026-05-07 11:34 | 27.62725 | 121.33835 | 30955 ft | 462 kts | 280° |
| 2026-05-07 11:35 | 27.63972 | 121.26735 | 30945 ft | 462 kts | 280° |
| 2026-05-07 11:35 | 27.65209 | 121.19679 | 30954 ft | 461 kts | 280° |
| 2026-05-07 11:36 | 27.66450 | 121.12578 | 30949 ft | 461 kts | 280° |
| 2026-05-07 11:36 | 27.67687 | 121.05473 | 30951 ft | 461 kts | 280° |
| 2026-05-07 11:37 | 27.68917 | 120.98380 | 30951 ft | 461 kts | 280° |
| 2026-05-07 11:37 | 27.70145 | 120.91283 | 30960 ft | 460 kts | 280° |
| 2026-05-07 11:38 | 27.71371 | 120.84177 | 30953 ft | 460 kts | 280° |
| 2026-05-07 11:38 | 27.72588 | 120.77095 | 30949 ft | 460 kts | 280° |
| 2026-05-07 11:39 | 27.74910 | 120.70444 | 30955 ft | 464 kts | 304° |
| 2026-05-07 11:39 | 27.77151 | 120.67852 | 30969 ft | 472 kts | 318° |
| 2026-05-07 11:39 | 27.79940 | 120.65843 | 30959 ft | 480 kts | 329° |
| 2026-05-07 11:40 | 27.86420 | 120.63768 | 30960 ft | 499 kts | 354° |
| 2026-05-07 11:40 | 27.93398 | 120.64558 | 30969 ft | 504 kts | 2° |
| 2026-05-07 11:41 | 28.00341 | 120.65399 | 30970 ft | 500 kts | 359° |
| 2026-05-07 11:41 | 28.07269 | 120.66038 | 30984 ft | 499 kts | 359° |
| 2026-05-07 11:42 | 28.14132 | 120.66710 | 30964 ft | 496 kts | 358° |
| 2026-05-07 11:42 | 28.21030 | 120.67398 | 30959 ft | 493 kts | 358° |
| 2026-05-07 11:43 | 28.27800 | 120.68067 | 30969 ft | 491 kts | 358° |
| 2026-05-07 11:43 | 28.34597 | 120.68740 | 30989 ft | 490 kts | 358° |
| 2026-05-07 11:44 | 28.41403 | 120.69413 | 30967 ft | 491 kts | 358° |
| 2026-05-07 11:44 | 28.48207 | 120.70088 | 30970 ft | 491 kts | 358° |
| 2026-05-07 11:45 | 28.55032 | 120.70771 | 30973 ft | 493 kts | 358° |
| 2026-05-07 11:45 | 28.61874 | 120.71462 | 30971 ft | 494 kts | 358° |
| 2026-05-07 11:46 | 28.68739 | 120.72155 | 30968 ft | 494 kts | 358° |
| 2026-05-07 11:46 | 28.75593 | 120.72878 | 30968 ft | 495 kts | 359° |
| 2026-05-07 11:47 | 28.82409 | 120.73623 | 30982 ft | 495 kts | 358° |
| 2026-05-07 11:47 | 28.89283 | 120.74358 | 30968 ft | 495 kts | 358° |
| 2026-05-07 11:48 | 28.96151 | 120.75065 | 30966 ft | 495 kts | 358° |
| 2026-05-07 11:48 | 29.03014 | 120.75770 | 30972 ft | 495 kts | 358° |
| 2026-05-07 11:49 | 29.09839 | 120.76472 | 30979 ft | 495 kts | 358° |
| 2026-05-07 11:49 | 29.16690 | 120.77183 | 30981 ft | 494 kts | 358° |
| 2026-05-07 11:50 | 29.23538 | 120.77894 | 30966 ft | 494 kts | 358° |
| 2026-05-07 11:50 | 29.30389 | 120.78608 | 30971 ft | 494 kts | 358° |
| 2026-05-07 11:51 | 29.37230 | 120.79321 | 30989 ft | 493 kts | 358° |
| 2026-05-07 11:51 | 29.44057 | 120.80034 | 30978 ft | 492 kts | 358° |
| 2026-05-07 11:52 | 29.50877 | 120.80746 | 30983 ft | 492 kts | 358° |
| 2026-05-07 11:52 | 29.57647 | 120.81996 | 30979 ft | 507 kts | 14° |
| 2026-05-07 11:52 | 29.60765 | 120.84013 | 30985 ft | 526 kts | 31° |
| 2026-05-07 11:53 | 29.63389 | 120.87020 | 30977 ft | 542 kts | 49° |
| 2026-05-07 11:53 | 29.67483 | 120.94367 | 30998 ft | 546 kts | 53° |
| 2026-05-07 11:54 | 29.71519 | 121.01717 | 30965 ft | 547 kts | 52° |
| 2026-05-07 11:54 | 29.75677 | 121.09047 | 30983 ft | 546 kts | 52° |
| 2026-05-07 11:55 | 29.79855 | 121.16315 | 30954 ft | 542 kts | 52° |
| 2026-05-07 11:55 | 29.84000 | 121.23572 | 30957 ft | 542 kts | 52° |
| 2026-05-07 11:56 | 29.88161 | 121.30835 | 30942 ft | 539 kts | 49° |
| 2026-05-07 11:56 | 29.90618 | 121.34019 | 30941 ft | 527 kts | 34° |
| 2026-05-07 11:56 | 29.92567 | 121.35639 | 30924 ft | 515 kts | 22° |
| 2026-05-07 11:57 | 29.99927 | 121.39901 | 30988 ft | 512 kts | 20° |
| 2026-05-07 11:57 | 30.06259 | 121.43810 | 30944 ft | 518 kts | 22° |
| 2026-05-07 11:58 | 30.11530 | 121.47141 | 30987 ft | 519 kts | 22° |
| 2026-05-07 11:58 | 30.17891 | 121.51152 | 30930 ft | 521 kts | 22° |
| 2026-05-07 11:59 | 30.24249 | 121.55149 | 30952 ft | 520 kts | 22° |
| 2026-05-07 11:59 | 30.30578 | 121.59203 | 30946 ft | 520 kts | 23° |
| 2026-05-07 12:00 | 30.36799 | 121.63261 | 30948 ft | 497 kts | 22° |
| 2026-05-07 12:00 | 30.39774 | 121.65157 | 30943 ft | 479 kts | 22° |
| 2026-05-07 12:00 | 30.42657 | 121.66952 | 30942 ft | 462 kts | 21° |
| 2026-05-07 12:00 | 30.45409 | 121.68653 | 30969 ft | 446 kts | 21° |
| 2026-05-07 12:01 | 30.48114 | 121.70326 | 30953 ft | 432 kts | 20° |
| 2026-05-07 12:01 | 30.50720 | 121.71945 | 30947 ft | 418 kts | 20° |
| 2026-05-07 12:01 | 30.53235 | 121.73517 | 30982 ft | 404 kts | 20° |
| 2026-05-07 12:01 | 30.55673 | 121.75025 | 30955 ft | 386 kts | 16° |
| 2026-05-07 12:02 | 30.58111 | 121.76065 | 30995 ft | 370 kts | 7° |
| 2026-05-07 12:02 | 30.63123 | 121.77501 | 30995 ft | 369 kts | 5° |
| 2026-05-07 12:03 | 30.68092 | 121.78969 | 30981 ft | 367 kts | 6° |
| 2026-05-07 12:03 | 30.73000 | 121.80536 | 30983 ft | 365 kts | 7° |
| 2026-05-07 12:04 | 30.77926 | 121.82138 | 31008 ft | 370 kts | 7° |
| 2026-05-07 12:04 | 30.82887 | 121.83777 | 31015 ft | 372 kts | 7° |
| 2026-05-07 12:05 | 30.87853 | 121.85483 | 31022 ft | 372 kts | 8° |
| 2026-05-07 12:05 | 30.92823 | 121.87173 | 31010 ft | 368 kts | 4° |
| 2026-05-07 12:05 | 30.95253 | 121.87284 | 31023 ft | 337 kts | 336° |
| 2026-05-07 12:06 | 30.97387 | 121.86328 | 31089 ft | 329 kts | 328° |
| 2026-05-07 12:06 | 31.01706 | 121.84241 | 31031 ft | 338 kts | 330° |
| 2026-05-07 12:07 | 31.06100 | 121.82393 | 31021 ft | 337 kts | 333° |
| 2026-05-07 12:07 | 31.10544 | 121.80702 | 31019 ft | 334 kts | 334° |
| 2026-05-07 12:08 | 31.14962 | 121.78917 | 31027 ft | 339 kts | 323° |
| 2026-05-07 12:08 | 31.16823 | 121.77249 | 31046 ft | 341 kts | 308° |
| 2026-05-07 12:08 | 31.18315 | 121.75070 | 31022 ft | 348 kts | 294° |
| 2026-05-07 12:08 | 31.19082 | 121.72371 | 31048 ft | 357 kts | 277° |
| 2026-05-07 12:09 | 31.19162 | 121.69405 | 31059 ft | 373 kts | 266° |
| 2026-05-07 12:09 | 31.18666 | 121.66372 | 31040 ft | 391 kts | 251° |
| 2026-05-07 12:09 | 31.17547 | 121.63476 | 31089 ft | 402 kts | 248° |
| 2026-05-07 12:09 | 31.16355 | 121.60465 | 31084 ft | 415 kts | 248° |
| 2026-05-07 12:10 | 31.15134 | 121.57351 | 31087 ft | 428 kts | 249° |
| 2026-05-07 12:10 | 31.12615 | 121.50873 | 31098 ft | 446 kts | 249° |
| 2026-05-07 12:11 | 31.10059 | 121.44284 | 31041 ft | 442 kts | 249° |
| 2026-05-07 12:11 | 31.07536 | 121.37791 | 31030 ft | 438 kts | 249° |
| 2026-05-07 12:12 | 31.05018 | 121.31315 | 31054 ft | 438 kts | 249° |
| 2026-05-07 12:12 | 31.02495 | 121.24825 | 31060 ft | 440 kts | 249° |
| 2026-05-07 12:13 | 30.99968 | 121.18315 | 31047 ft | 441 kts | 249° |
| 2026-05-07 12:13 | 30.97438 | 121.11795 | 31039 ft | 442 kts | 249° |
| 2026-05-07 12:14 | 30.94919 | 121.05306 | 31027 ft | 442 kts | 249° |
| 2026-05-07 12:14 | 30.92384 | 120.98779 | 31037 ft | 443 kts | 249° |
| 2026-05-07 12:15 | 30.89846 | 120.92240 | 31033 ft | 443 kts | 249° |
| 2026-05-07 12:15 | 30.87303 | 120.85684 | 31033 ft | 444 kts | 249° |
| 2026-05-07 12:16 | 30.84765 | 120.79144 | 31035 ft | 443 kts | 249° |
| 2026-05-07 12:16 | 30.82220 | 120.72586 | 31035 ft | 443 kts | 249° |